Time;durP1;ratioP1;P1;durP2;ratioP2;P2;SDS_P1;SDS_P2;PMS_P1;PMS_P2;Temp;Humidity;BMP_temperature;BMP_pressure;BME280_temperature;BME280_humidity;BME280_pressure;Samples;Min_cycle;Max_cycle;Signal;HPM_P1;HPM_P2
2021/12/29 00:00:46;;;;;;;;;36.67;31.67;;;;;8.96;96.27;98950.34;5084011;27;45345;-74
2021/12/29 00:03:12;;;;;;;;;30.33;27.67;;;;;8.94;96.46;98960.03;5097682;27;45330;-74
2021/12/29 00:05:37;;;;;;;;;29.00;26.67;;;;;8.89;96.08;98949.69;5092791;27;45397;-74
2021/12/29 00:08:03;;;;;;;;;36.67;30.00;;;;;8.85;96.33;98952.50;5097475;27;45474;-74
2021/12/29 00:10:29;;;;;;;;;19.33;17.67;;;;;8.83;96.42;98960.44;5091070;27;45577;-74
2021/12/29 00:12:56;;;;;;;;;28.33;26.67;;;;;8.81;96.43;98946.47;5097352;27;45557;-74
2021/12/29 00:15:26;;;;;;;;;28.67;24.67;;;;;8.79;96.04;98948.31;5093627;27;45474;-74
2021/12/29 00:17:52;;;;;;;;;29.00;24.67;;;;;8.77;96.37;98954.53;5095796;27;45409;-74
2021/12/29 00:20:20;;;;;;;;;27.00;23.00;;;;;8.75;96.03;98951.94;5090131;27;45274;-74
2021/12/29 00:22:46;;;;;;;;;29.33;26.33;;;;;8.75;96.37;98963.31;5090689;27;46711;-74
2021/12/29 00:25:12;;;;;;;;;23.00;19.33;;;;;8.75;96.33;98963.31;5094315;27;45406;-75
2021/12/29 00:27:39;;;;;;;;;22.67;21.67;;;;;8.74;96.37;98974.75;5096680;27;45371;-74
2021/12/29 00:30:07;;;;;;;;;19.67;19.33;;;;;8.74;96.14;98979.13;5094379;27;45316;-74
2021/12/29 00:32:33;;;;;;;;;17.00;16.00;;;;;8.73;95.83;98988.78;5096401;27;46147;-74
2021/12/29 00:34:58;;;;;;;;;22.67;19.00;;;;;8.72;95.91;98981.81;5083434;27;45421;-74
2021/12/29 00:37:25;;;;;;;;;21.50;19.50;;;;;8.72;96.02;98991.47;5095579;27;45435;-74
2021/12/29 00:39:51;;;;;;;;;17.25;16.00;;;;;8.69;95.92;98983.72;5092536;27;45592;-74
2021/12/29 00:42:18;;;;;;;;;21.00;18.33;;;;;8.68;96.21;98990.75;5095330;27;45521;-74
2021/12/29 00:44:44;;;;;;;;;17.00;15.00;;;;;8.67;96.16;98989.03;5089059;27;45362;-74
2021/12/29 00:47:11;;;;;;;;;17.75;15.50;;;;;8.67;96.42;98993.44;5091494;27;45224;-74
2021/12/29 00:49:37;;;;;;;;;19.00;15.50;;;;;8.65;96.30;98985.59;5093554;27;45488;-75
2021/12/29 00:52:11;;;;;;;;;16.50;13.00;;;;;8.64;95.93;98983.00;5091492;27;46169;-74
2021/12/29 00:54:40;;;;;;;;;12.00;11.50;;;;;8.61;96.01;98996.25;5090515;27;45367;-74
2021/12/29 00:57:06;;;;;;;;;13.50;11.75;;;;;8.57;95.87;99000.75;5092595;27;45494;-74
2021/12/29 00:59:31;;;;;;;;;10.25;9.75;;;;;8.55;95.69;99010.44;5091087;27;45395;-74
2021/12/29 01:01:57;;;;;;;;;10.00;10.00;;;;;8.52;95.96;99005.31;5095084;27;46477;-74
2021/12/29 01:04:23;;;;;;;;;10.00;10.00;;;;;8.49;96.01;99013.31;5093307;27;45402;-74
2021/12/29 01:06:49;;;;;;;;;9.00;9.00;;;;;8.47;96.00;99007.22;5089637;27;45505;-75
2021/12/29 01:09:14;;;;;;;;;8.50;8.50;;;;;8.45;96.02;99023.94;5092936;27;45573;-74
2021/12/29 01:11:40;;;;;;;;;9.00;7.00;;;;;8.45;95.95;99032.69;5091601;27;46289;-75
2021/12/29 01:14:08;;;;;;;;;9.00;9.00;;;;;8.42;95.92;99018.78;5093751;27;45491;-75
2021/12/29 01:19:03;;;;;;;;;10.25;9.50;;;;;8.35;95.95;99020.78;5094788;27;45639;-74
2021/12/29 01:21:28;;;;;;;;;11.00;10.00;;;;;8.32;95.98;99019.09;5086244;27;45615;-75
2021/12/29 01:23:54;;;;;;;;;11.50;10.50;;;;;8.30;95.99;99013.00;5096134;27;45444;-75
2021/12/29 01:26:20;;;;;;;;;9.00;9.00;;;;;8.29;96.08;99008.66;5080226;27;45581;-75
2021/12/29 01:28:45;;;;;;;;;10.00;9.50;;;;;8.27;96.42;99042.00;5093518;27;45628;-75
2021/12/29 01:31:11;;;;;;;;;7.50;6.50;;;;;8.28;96.12;99030.59;5087220;27;45575;-75
2021/12/29 01:33:36;;;;;;;;;8.50;6.00;;;;;8.25;95.73;99035.06;5095731;27;45328;-75
2021/12/29 01:36:02;;;;;;;;;6.25;6.25;;;;;8.24;96.44;99031.59;5090429;27;45548;-75
2021/12/29 01:38:27;;;;;;;;;5.00;5.00;;;;;8.23;95.83;99029.88;5094660;27;45465;-75
2021/12/29 01:40:53;;;;;;;;;6.75;5.50;;;;;8.22;96.05;99045.66;5089377;27;46346;-75
2021/12/29 01:43:19;;;;;;;;;7.75;7.75;;;;;8.21;96.11;99043.97;5094964;27;45491;-75
2021/12/29 01:45:45;;;;;;;;;9.75;5.25;;;;;8.21;96.02;99042.19;5090627;27;45345;-75
2021/12/29 01:48:11;;;;;;;;;6.25;6.25;;;;;8.20;95.95;99052.75;5095769;27;45458;-74
2021/12/29 01:50:38;;;;;;;;;7.50;7.50;;;;;8.19;96.41;99061.53;5094023;27;45366;-75
2021/12/29 01:53:08;;;;;;;;;5.75;5.00;;;;;8.19;96.08;99062.41;5095325;27;45318;-75
2021/12/29 01:55:36;;;;;;;;;7.75;6.50;;;;;8.19;96.07;99066.78;5088292;27;45522;-75
2021/12/29 01:58:02;;;;;;;;;10.00;7.25;;;;;8.18;96.50;99078.22;5094480;27;45469;-75
2021/12/29 02:00:30;;;;;;;;;6.00;6.00;;;;;8.19;96.44;99067.66;5092896;27;45927;-75
2021/12/29 02:02:56;;;;;;;;;7.00;6.75;;;;;8.18;96.05;99071.19;5095319;27;45432;-75
2021/12/29 02:05:22;;;;;;;;;12.50;10.00;;;;;8.19;96.19;99082.56;5089014;27;45422;-75
2021/12/29 02:07:48;;;;;;;;;8.75;8.75;;;;;8.18;96.66;99070.31;5090943;27;45307;-75
2021/12/29 02:10:17;;;;;;;;;8.75;8.75;;;;;8.18;96.30;99068.56;5090197;27;46197;-75
2021/12/29 02:12:43;;;;;;;;;5.50;5.50;;;;;8.17;96.25;99071.22;5092957;27;45471;-75
2021/12/29 02:15:10;;;;;;;;;6.00;6.00;;;;;8.15;96.24;99071.28;5087711;27;45458;-75
2021/12/29 02:17:35;;;;;;;;;5.00;4.25;;;;;8.14;96.29;99072.19;5090479;27;45545;-75
2021/12/29 02:20:06;;;;;;;;;5.00;5.00;;;;;8.13;95.98;99078.34;5089781;27;45468;-75
2021/12/29 02:22:50;;;;;;;;;9.00;6.75;;;;;8.14;95.93;99089.69;5094389;27;45389;-75
2021/12/29 02:27:54;;;;;;;;;6.00;6.00;;;;;8.11;96.27;99084.53;5095254;27;45357;-75
2021/12/29 02:30:23;;;;;;;;;9.75;7.25;;;;;8.13;96.32;99098.47;5093026;27;45355;-75
2021/12/29 02:32:49;;;;;;;;;7.25;4.00;;;;;8.12;96.15;99095.00;5097426;27;45696;-75
2021/12/29 02:35:16;;;;;;;;;6.00;6.00;;;;;8.12;96.01;99102.00;5097660;27;45491;-75
2021/12/29 02:37:42;;;;;;;;;4.25;4.25;;;;;8.12;96.49;99096.75;5098640;27;45435;-75
2021/12/29 02:40:10;;;;;;;;;4.75;4.75;;;;;8.12;96.09;99099.38;5088785;27;46246;-75
2021/12/29 02:42:40;;;;;;;;;5.50;5.25;;;;;8.11;96.48;99101.16;5095616;27;45395;-75
2021/12/29 02:45:08;;;;;;;;;6.25;6.00;;;;;8.10;96.60;99099.44;5089335;27;45489;-75
2021/12/29 02:47:33;;;;;;;;;5.00;5.00;;;;;8.09;96.62;99102.97;5096471;27;45405;-75
2021/12/29 02:49:59;;;;;;;;;5.50;5.00;;;;;8.09;96.64;99104.72;5089700;27;46306;-75
2021/12/29 02:52:25;;;;;;;;;7.75;7.75;;;;;8.09;96.95;99092.47;5096428;27;45448;-75
2021/12/29 02:54:51;;;;;;;;;9.50;9.00;;;;;8.09;96.59;99104.72;5107158;27;45412;-75
2021/12/29 02:57:17;;;;;;;;;10.25;9.00;;;;;8.08;96.57;99111.75;5097044;27;45529;-75
2021/12/29 02:59:43;;;;;;;;;9.00;8.25;;;;;8.07;96.85;99107.41;5091370;27;45573;-75
2021/12/29 03:02:09;;;;;;;;;9.00;6.75;;;;;8.07;96.41;99104.78;5095474;27;46097;-75
2021/12/29 03:04:34;;;;;;;;;9.50;7.50;;;;;8.06;96.29;99137.19;5093802;27;45684;-75
2021/12/29 03:07:00;;;;;;;;;6.00;6.00;;;;;8.04;96.30;99126.72;5098602;27;45535;-75
2021/12/29 03:09:25;;;;;;;;;8.75;8.75;;;;;8.02;96.40;99091.81;5093558;27;46121;-75
2021/12/29 03:11:51;;;;;;;;;8.75;8.75;;;;;8.00;96.49;99106.75;5095812;27;45471;-75
2021/12/29 03:14:17;;;;;;;;;7.25;6.50;;;;;7.98;96.68;99116.41;5097626;27;45547;-75
2021/12/29 03:16:43;;;;;;;;;10.25;10.00;;;;;7.98;96.56;99102.44;5096802;27;45446;-75
2021/12/29 03:19:09;;;;;;;;;10.75;7.25;;;;;7.97;96.65;99098.09;5096853;27;46131;-75
2021/12/29 03:21:35;;;;;;;;;9.75;8.75;;;;;7.97;96.90;99100.72;5087798;27;45429;-75
2021/12/29 03:24:02;;;;;;;;;11.25;10.00;;;;;7.97;96.99;99109.44;5096213;27;45455;-75
2021/12/29 03:26:28;;;;;;;;;7.00;7.00;;;;;7.97;96.87;99098.94;5095996;27;45563;-75
2021/12/29 03:28:54;;;;;;;;;11.25;11.25;;;;;7.99;96.92;99096.28;5097134;27;46467;-75
2021/12/29 03:31:21;;;;;;;;;10.50;9.25;;;;;8.01;96.75;99091.84;5091155;27;45459;-75
2021/12/29 03:33:48;;;;;;;;;10.75;8.50;;;;;8.01;97.02;99092.72;5097187;27;45463;-75
2021/12/29 03:36:15;;;;;;;;;7.50;7.50;;;;;8.02;96.85;99106.69;5095572;27;45401;-75
2021/12/29 03:38:41;;;;;;;;;10.75;7.25;;;;;8.02;96.79;99112.81;5096447;27;46317;-75
2021/12/29 03:41:09;;;;;;;;;6.00;5.00;;;;;8.02;97.16;99120.69;5083246;27;45497;-75
2021/12/29 03:43:35;;;;;;;;;8.50;6.00;;;;;8.06;97.04;99126.69;5096869;27;45405;-75
2021/12/29 03:46:03;;;;;;;;;6.75;5.00;;;;;8.04;96.90;99099.63;5084091;27;45571;-75
2021/12/29 03:48:30;;;;;;;;;9.00;7.75;;;;;8.05;97.26;99078.56;5096393;27;45409;-75
2021/12/29 03:50:57;;;;;;;;;7.75;6.25;;;;;8.09;97.52;99075.84;5084263;27;45423;-75
2021/12/29 03:53:23;;;;;;;;;6.50;5.75;;;;;8.11;97.54;99076.66;5095093;27;45348;-75
2021/12/29 03:55:50;;;;;;;;;7.00;7.00;;;;;8.13;97.73;99082.72;5090229;27;45546;-75
2021/12/29 03:58:18;;;;;;;;;7.75;7.25;;;;;8.16;97.45;99101.03;5094710;27;47828;-75
2021/12/29 04:00:44;;;;;;;;;8.75;5.25;;;;;8.15;97.30;99076.53;5109589;27;45384;-75
2021/12/29 04:03:10;;;;;;;;;9.00;7.25;;;;;8.15;97.42;99065.16;5096270;27;45363;-75
2021/12/29 04:05:35;;;;;;;;;4.50;4.00;;;;;8.15;97.29;99078.28;5092245;27;45394;-75
2021/12/29 04:08:02;;;;;;;;;6.75;6.75;;;;;8.15;97.32;99102.78;5096047;27;46141;-75
2021/12/29 04:10:28;;;;;;;;;6.75;6.00;;;;;8.16;97.45;99094.00;5090959;27;45501;-75
2021/12/29 04:12:54;;;;;;;;;9.25;7.75;;;;;8.17;97.60;99090.47;5096015;27;45494;-75
2021/12/29 04:15:19;;;;;;;;;11.50;10.50;;;;;8.19;97.63;99082.56;5089646;27;45349;-75
2021/12/29 04:17:46;;;;;;;;;10.00;9.75;;;;;8.18;97.60;99063.31;5095925;27;45565;-75
2021/12/29 04:23:05;;;;;;;;;13.00;11.25;;;;;8.19;97.67;99086.03;5095795;27;45383;-75
2021/12/29 04:25:35;;;;;;;;;7.25;6.75;;;;;8.21;97.83;99088.63;5093059;27;45514;-75
2021/12/29 04:28:01;;;;;;;;;11.25;10.00;;;;;8.25;97.96;99087.59;5095709;27;46165;-75
2021/12/29 04:30:28;;;;;;;;;6.00;6.00;;;;;8.27;98.13;99094.53;5090544;27;46286;-75
2021/12/29 04:32:53;;;;;;;;;10.00;9.00;;;;;8.28;98.36;99101.50;5091374;27;45493;-75
2021/12/29 04:35:52;;;;;;;;;8.00;8.00;;;;;8.31;98.25;99106.66;5111986;27;45382;-72
2021/12/29 04:38:18;;;;;;;;;13.75;12.00;;;;;8.32;98.43;99110.19;5092113;27;45386;-73
2021/12/29 04:40:43;;;;;;;;;9.00;8.00;;;;;8.34;98.27;99114.47;5090710;27;45412;-75
2021/12/29 04:43:09;;;;;;;;;10.00;9.50;;;;;8.34;97.98;99100.47;5091964;27;45476;-75
2021/12/29 04:45:35;;;;;;;;;13.50;9.00;;;;;8.39;98.16;99102.03;5091644;27;45340;-75
2021/12/29 04:48:01;;;;;;;;;8.25;6.00;;;;;8.40;98.33;99098.50;5090640;27;45374;-76
2021/12/29 04:50:30;;;;;;;;;5.50;5.50;;;;;8.42;98.17;99108.09;5091203;27;45376;-75
2021/12/29 04:53:00;;;;;;;;;6.75;6.00;;;;;8.45;98.49;99116.75;5091845;27;45411;-75
2021/12/29 04:55:28;;;;;;;;;6.25;5.50;;;;;8.47;98.51;99114.09;5090869;27;45518;-75
2021/12/29 04:57:54;;;;;;;;;12.00;5.75;;;;;8.48;98.52;99106.16;5090457;27;45956;-75
2021/12/29 05:00:23;;;;;;;;;13.50;9.50;;;;;8.51;98.59;99115.72;5091040;27;45463;-75
2021/12/29 05:02:49;;;;;;;;;10.75;9.25;;;;;8.52;98.60;99110.41;5092158;27;45390;-75
2021/12/29 05:05:54;;;;;;;;;15.25;9.75;;;;;8.55;98.90;99106.81;5091191;27;46311;-75
2021/12/29 05:08:27;;;;;;;;;9.75;8.50;;;;;8.59;99.18;99116.31;5089133;27;45617;-75
2021/12/29 05:11:02;;;;;;;;;12.00;9.00;;;;;8.59;98.74;99104.03;5124184;27;45449;-75
2021/12/29 05:13:30;;;;;;;;;10.75;9.00;;;;;8.61;98.47;99115.34;5091238;27;45452;-75
2021/12/29 05:15:56;;;;;;;;;11.25;11.00;;;;;8.61;98.49;99119.75;5091151;27;46250;-75
2021/12/29 05:18:27;;;;;;;;;7.25;7.25;;;;;8.61;99.05;99110.09;5090901;27;45608;-75
2021/12/29 05:20:54;;;;;;;;;13.75;11.50;;;;;8.60;98.34;99112.78;5091054;27;45390;-75
2021/12/29 05:23:20;;;;;;;;;13.25;13.25;;;;;8.60;98.29;99112.78;5091199;27;45595;-75
2021/12/29 05:25:46;;;;;;;;;13.00;13.00;;;;;8.61;97.82;99123.25;5090173;27;45548;-75
2021/12/29 05:28:12;;;;;;;;;10.75;10.00;;;;;8.60;97.58;99131.16;5091156;27;45350;-75
2021/12/29 05:30:38;;;;;;;;;9.00;6.00;;;;;8.58;97.65;99122.47;5091229;27;45529;-75
2021/12/29 05:33:05;;;;;;;;;13.00;13.00;;;;;8.57;97.77;99118.13;5091226;27;45353;-75
2021/12/29 05:35:31;;;;;;;;;11.50;11.50;;;;;8.56;97.82;99119.88;5090604;27;46576;-75
2021/12/29 05:37:58;;;;;;;;;10.50;9.00;;;;;8.55;97.65;99106.81;5091125;27;45371;-75
2021/12/29 05:40:24;;;;;;;;;13.75;12.00;;;;;8.54;97.41;99099.84;5090296;27;45405;-72
2021/12/29 05:42:50;;;;;;;;;10.25;10.25;;;;;8.53;97.52;99111.28;5090663;27;45556;-75
2021/12/29 05:45:17;;;;;;;;;13.50;11.50;;;;;8.52;97.50;99127.94;5080823;27;47091;-75
2021/12/29 05:47:43;;;;;;;;;13.50;12.00;;;;;8.50;96.95;99130.63;5076735;28;45601;-75
2021/12/29 05:50:12;;;;;;;;;13.75;10.50;;;;;8.47;97.30;99124.59;5077185;28;45517;-75
2021/12/29 05:52:37;;;;;;;;;9.00;7.25;;;;;8.45;97.04;99127.25;5077271;28;45399;-75
2021/12/29 05:55:05;;;;;;;;;10.50;9.75;;;;;8.43;97.17;99136.09;5076559;28;45581;-75
2021/12/29 05:57:30;;;;;;;;;8.75;7.75;;;;;8.41;97.37;99149.28;5076835;28;45410;-75
2021/12/29 05:59:56;;;;;;;;;9.00;9.00;;;;;8.39;97.30;99138.81;5077252;28;45561;-75
2021/12/29 06:02:21;;;;;;;;;6.25;6.00;;;;;8.38;97.32;99149.38;5076820;28;45310;-75
2021/12/29 06:04:47;;;;;;;;;8.25;5.50;;;;;8.36;97.45;99162.56;5076305;28;45498;-73
2021/12/29 06:07:13;;;;;;;;;8.25;6.00;;;;;8.35;97.40;99155.59;5077108;27;45467;-74
2021/12/29 06:09:39;;;;;;;;;5.00;4.00;;;;;8.34;97.57;99148.63;5076482;28;45526;-75
2021/12/29 06:12:05;;;;;;;;;7.75;7.00;;;;;8.34;97.51;99151.25;5072421;28;45581;-75
2021/12/29 06:14:30;;;;;;;;;7.50;6.75;;;;;8.33;97.82;99161.81;5069147;28;46299;-73
2021/12/29 06:16:56;;;;;;;;;5.00;4.00;;;;;8.33;97.84;99165.28;5076490;28;45420;-73
2021/12/29 06:19:21;;;;;;;;;10.00;9.50;;;;;8.34;97.93;99176.66;5076633;27;45408;-73
2021/12/29 06:21:47;;;;;;;;;10.75;8.00;;;;;8.35;97.92;99171.38;5076614;28;45468;-73
2021/12/29 06:24:12;;;;;;;;;12.00;10.50;;;;;8.35;98.18;99176.63;5076062;28;46357;-73
2021/12/29 06:26:38;;;;;;;;;10.75;10.00;;;;;8.36;98.09;99169.59;5076403;28;45386;-73
2021/12/29 06:29:03;;;;;;;;;7.00;6.75;;;;;8.36;97.93;99180.97;5076351;28;45365;-74
2021/12/29 06:31:29;;;;;;;;;9.00;7.50;;;;;8.36;98.05;99180.09;5075544;28;45540;-73
2021/12/29 06:33:54;;;;;;;;;10.75;8.00;;;;;8.35;97.94;99178.38;5075889;27;45360;-73
2021/12/29 06:36:20;;;;;;;;;4.25;4.00;;;;;8.35;97.78;99183.63;5074850;28;45420;-73
2021/12/29 06:38:45;;;;;;;;;5.75;4.75;;;;;8.35;97.47;99183.63;5076228;28;45246;-73
2021/12/29 06:41:11;;;;;;;;;8.25;6.75;;;;;8.33;97.56;99170.53;5076142;28;45422;-73
2021/12/29 06:43:37;;;;;;;;;9.00;7.00;;;;;8.32;97.47;99175.84;5076321;28;45440;-75
2021/12/29 06:46:02;;;;;;;;;10.75;10.75;;;;;8.30;97.86;99190.75;5075143;28;45220;-75
2021/12/29 06:48:28;;;;;;;;;9.00;9.00;;;;;8.31;97.41;99203.84;5075970;28;45507;-75
2021/12/29 06:50:53;;;;;;;;;12.25;11.50;;;;;8.30;97.36;99185.50;5075418;28;45524;-75
2021/12/29 06:53:19;;;;;;;;;9.50;9.25;;;;;8.28;97.20;99187.31;5075825;28;46270;-73
2021/12/29 06:55:44;;;;;;;;;11.00;9.25;;;;;8.27;97.36;99196.09;5073975;28;45373;-73
2021/12/29 06:58:10;;;;;;;;;8.25;7.50;;;;;8.25;97.31;99185.63;5075015;28;45429;-75
2021/12/29 07:00:37;;;;;;;;;10.00;7.25;;;;;8.24;97.27;99191.78;5073534;28;45389;-73
2021/12/29 07:03:02;;;;;;;;;12.50;9.25;;;;;8.22;97.14;99204.09;5075967;28;45369;-73
2021/12/29 07:05:28;;;;;;;;;14.00;12.50;;;;;8.18;97.35;99201.63;5075355;27;45379;-73
2021/12/29 07:07:54;;;;;;;;;11.50;11.50;;;;;8.17;97.27;99202.53;5075962;28;45415;-73
2021/12/29 07:10:21;;;;;;;;;17.50;16.50;;;;;8.15;97.22;99194.69;5074562;28;45445;-73
2021/12/29 07:12:47;;;;;;;;;12.00;10.75;;;;;8.13;97.05;99188.63;5075492;28;46313;-73
2021/12/29 07:15:12;;;;;;;;;11.75;8.50;;;;;8.14;97.27;99203.47;5075174;28;45417;-73
2021/12/29 07:17:38;;;;;;;;;11.25;9.00;;;;;8.13;97.47;99203.50;5064226;28;45522;-73
2021/12/29 07:20:04;;;;;;;;;14.00;10.00;;;;;8.15;97.27;99209.59;5073147;28;45863;-73
2021/12/29 07:22:30;;;;;;;;;10.00;8.75;;;;;8.14;97.60;99207.84;5069257;27;45673;-73
2021/12/29 07:24:56;;;;;;;;;10.00;7.75;;;;;8.13;97.47;99222.75;5075955;27;45464;-73
2021/12/29 07:27:21;;;;;;;;;3.75;3.75;;;;;8.12;97.83;99223.66;5073174;28;45490;-73
2021/12/29 07:29:47;;;;;;;;;7.00;7.00;;;;;8.13;97.60;99225.38;5074290;27;45555;-75
2021/12/29 07:32:13;;;;;;;;;13.00;11.00;;;;;8.15;97.71;99231.44;5074479;27;45422;-75
2021/12/29 07:34:38;;;;;;;;;9.25;7.25;;;;;8.17;97.77;99239.28;5073435;27;45514;-75
2021/12/29 07:37:03;;;;;;;;;10.50;10.50;;;;;8.18;97.66;99241.00;5072627;28;46148;-75
2021/12/29 07:39:29;;;;;;;;;8.00;6.75;;;;;8.20;97.89;99247.09;5074181;28;45472;-75
2021/12/29 07:41:54;;;;;;;;;7.50;7.50;;;;;8.21;97.60;99251.44;5074776;28;46212;-75
2021/12/29 07:44:22;;;;;;;;;9.00;9.00;;;;;8.23;97.77;99267.97;5065694;27;45454;-76
2021/12/29 07:46:52;;;;;;;;;5.75;4.50;;;;;8.24;97.59;99275.81;5074349;28;45394;-75
2021/12/29 07:49:17;;;;;;;;;7.00;6.50;;;;;8.26;97.47;99278.41;5059721;28;45480;-74
2021/12/29 07:51:42;;;;;;;;;10.00;6.25;;;;;8.27;97.40;99277.50;5069201;28;45823;-74
2021/12/29 07:54:08;;;;;;;;;8.25;8.25;;;;;8.27;97.46;99280.13;5072001;28;45510;-74
2021/12/29 07:56:34;;;;;;;;;9.75;6.00;;;;;8.27;97.51;99273.13;5074730;28;45383;-76
2021/12/29 07:58:59;;;;;;;;;7.25;6.25;;;;;8.27;97.60;99265.22;5074716;27;45550;-74
2021/12/29 08:01:25;;;;;;;;;10.25;9.25;;;;;8.29;97.42;99259.94;5072394;28;45399;-74
2021/12/29 08:03:54;;;;;;;;;9.25;9.25;;;;;8.28;97.22;99264.34;5063211;28;45493;-75
2021/12/29 08:06:19;;;;;;;;;9.50;9.50;;;;;8.28;96.87;99266.97;5071855;27;45520;-75
2021/12/29 08:08:45;;;;;;;;;6.75;5.75;;;;;8.26;97.47;99266.13;5072178;28;45423;-75
2021/12/29 08:11:11;;;;;;;;;7.00;6.00;;;;;8.27;97.26;99262.59;5074102;28;46190;-75
2021/12/29 08:13:37;;;;;;;;;7.25;7.25;;;;;8.26;97.48;99252.16;5074261;28;45494;-76
2021/12/29 08:16:03;;;;;;;;;8.25;6.50;;;;;8.27;97.53;99265.22;5072549;27;45466;-76
2021/12/29 08:18:28;;;;;;;;;7.00;7.00;;;;;8.28;97.62;99260.84;5074386;28;45653;-76
2021/12/29 08:20:54;;;;;;;;;6.00;6.00;;;;;8.29;97.81;99258.19;5073302;27;46443;-76
2021/12/29 08:23:19;;;;;;;;;7.25;6.50;;;;;8.31;97.43;99263.38;5072990;28;45386;-76
2021/12/29 08:25:45;;;;;;;;;7.50;7.25;;;;;8.31;97.69;99266.88;5072242;28;45380;-76
2021/12/29 08:28:10;;;;;;;;;7.00;6.00;;;;;8.32;97.33;99257.25;5073686;28;45512;-75
2021/12/29 08:30:39;;;;;;;;;11.00;6.75;;;;;8.33;97.49;99253.72;5073593;28;45458;-76
2021/12/29 08:33:05;;;;;;;;;11.50;9.00;;;;;8.34;97.52;99250.19;5074049;28;45457;-76
2021/12/29 08:35:31;;;;;;;;;9.50;6.50;;;;;8.32;97.33;99258.13;5073793;27;45517;-75
2021/12/29 08:37:57;;;;;;;;;9.00;8.75;;;;;8.34;97.57;99265.97;5074027;28;45506;-76
2021/12/29 08:40:23;;;;;;;;;9.75;9.75;;;;;8.35;97.39;99257.19;5073385;28;45397;-76
2021/12/29 08:42:49;;;;;;;;;8.50;7.50;;;;;8.36;97.50;99261.53;5073955;28;45330;-76
2021/12/29 08:45:17;;;;;;;;;10.25;9.50;;;;;8.36;97.73;99265.03;5073786;28;45412;-75
2021/12/29 08:47:44;;;;;;;;;11.50;9.00;;;;;8.39;97.88;99274.56;5074438;28;45441;-75
2021/12/29 08:50:14;;;;;;;;;12.00;10.50;;;;;8.40;97.75;99279.75;5073465;28;45519;-76
2021/12/29 08:52:40;;;;;;;;;9.25;9.00;;;;;8.42;97.83;99278.88;5060571;28;45399;-76
2021/12/29 08:55:08;;;;;;;;;5.50;5.50;;;;;8.43;97.78;99284.06;5071088;27;45454;-76
2021/12/29 08:57:33;;;;;;;;;10.50;8.50;;;;;8.44;97.81;99279.69;5064998;28;45401;-76
2021/12/29 08:59:59;;;;;;;;;7.25;6.00;;;;;8.44;97.75;99288.44;5071672;27;46360;-76
2021/12/29 09:02:25;;;;;;;;;11.50;9.50;;;;;8.46;97.83;99293.63;5080526;27;45519;-76
2021/12/29 09:04:52;;;;;;;;;10.25;9.00;;;;;8.49;98.35;99283.91;5073148;28;45574;-76
2021/12/29 09:07:20;;;;;;;;;12.50;11.00;;;;;8.53;98.21;99288.19;5058568;28;45454;-76
2021/12/29 09:09:45;;;;;;;;;10.00;9.00;;;;;8.55;98.09;99291.59;5069121;28;46992;-76
2021/12/29 09:12:11;;;;;;;;;8.00;7.75;;;;;8.59;98.19;99279.22;5072015;28;45394;-60
2021/12/29 09:14:36;;;;;;;;;11.75;11.00;;;;;8.64;98.25;99287.84;5072815;28;45644;-62
2021/12/29 09:17:02;;;;;;;;;12.00;9.75;;;;;8.70;97.96;99283.28;5073195;28;45409;-60
2021/12/29 09:19:30;;;;;;;;;16.75;11.75;;;;;8.75;97.30;99278.72;5072242;27;47916;-60
2021/12/29 09:21:56;;;;;;;;;12.75;11.75;;;;;8.78;96.94;99284.81;5075062;28;45541;-60
2021/12/29 09:24:22;;;;;;;;;13.25;10.25;;;;;8.80;97.12;99288.25;5074253;28;45411;-61
2021/12/29 09:26:47;;;;;;;;;10.25;9.25;;;;;8.82;96.77;99284.66;5071280;28;45487;-60
2021/12/29 09:29:13;;;;;;;;;12.75;11.75;;;;;8.86;97.48;99288.06;5065136;27;46111;-60
2021/12/29 09:31:38;;;;;;;;;13.50;12.25;;;;;8.90;97.33;99284.41;5075373;28;45405;-60
2021/12/29 09:34:06;;;;;;;;;9.50;8.50;;;;;8.95;97.03;99301.78;5074773;28;45547;-61
2021/12/29 09:36:32;;;;;;;;;11.00;11.00;;;;;8.99;97.10;99310.44;5075997;28;45321;-61
2021/12/29 09:38:57;;;;;;;;;9.00;9.00;;;;;9.01;96.43;99295.50;5058436;28;45834;-60
2021/12/29 09:41:22;;;;;;;;;12.50;10.25;;;;;9.03;96.40;99293.69;5075452;28;45395;-61
2021/12/29 09:43:48;;;;;;;;;11.00;10.25;;;;;9.05;96.44;99295.31;5076802;28;45526;-61
2021/12/29 09:46:14;;;;;;;;;8.25;8.25;;;;;9.06;96.57;99283.03;5074268;28;45477;-60
2021/12/29 09:48:40;;;;;;;;;10.25;8.00;;;;;9.08;96.32;99279.44;5074979;28;45525;-61
2021/12/29 09:51:11;;;;;;;;;10.25;8.00;;;;;9.09;96.06;99272.44;5074347;28;45470;-61
2021/12/29 09:53:37;;;;;;;;;7.50;7.25;;;;;9.10;95.80;99274.16;5082704;27;45540;-60
2021/12/29 09:56:03;;;;;;;;;7.00;7.00;;;;;9.12;95.56;99274.09;5075090;28;45439;-61
2021/12/29 09:58:28;;;;;;;;;9.50;9.50;;;;;9.12;95.68;99269.72;5075983;28;45582;-60
2021/12/29 10:00:59;;;;;;;;;8.50;7.00;;;;;9.10;95.42;99269.75;5074976;28;45457;-61
2021/12/29 10:03:27;;;;;;;;;11.00;9.00;;;;;9.09;95.52;99260.13;5076106;27;45353;-61
2021/12/29 10:05:56;;;;;;;;;10.50;10.25;;;;;9.08;95.66;99244.41;5075034;28;45475;-62
2021/12/29 10:08:32;;;;;;;;;10.00;9.50;;;;;9.07;95.69;99235.66;5076490;28;46437;-62
2021/12/29 10:11:03;;;;;;;;;11.75;11.00;;;;;9.09;95.78;99244.34;5075465;28;45496;-62
2021/12/29 10:13:30;;;;;;;;;14.75;13.25;;;;;9.10;95.87;99247.84;5076244;28;45522;-61
2021/12/29 10:16:03;;;;;;;;;15.25;13.50;;;;;9.13;96.25;99253.03;5075635;28;45501;-60
2021/12/29 10:18:31;;;;;;;;;13.25;13.00;;;;;9.19;96.36;99237.06;5073982;28;46442;-62
2021/12/29 10:20:58;;;;;;;;;11.00;9.75;;;;;9.20;96.12;99236.16;5073737;28;45569;-61
2021/12/29 10:23:29;;;;;;;;;13.00;13.00;;;;;9.21;96.14;99235.22;5073170;28;45360;-62
2021/12/29 10:25:56;;;;;;;;;11.75;11.25;;;;;9.24;96.10;99236.88;5074457;28;45550;-62
2021/12/29 10:28:26;;;;;;;;;10.00;10.00;;;;;9.25;95.95;99251.75;5075408;28;45474;-62
2021/12/29 10:31:08;;;;;;;;;5.00;3.25;;;;;9.25;95.50;99276.28;5075242;28;45473;-59
2021/12/29 10:33:59;;;;;;;;;7.25;7.25;;;;;9.26;95.84;99280.63;5075754;28;45951;-60
2021/12/29 10:36:32;;;;;;;;;13.00;12.75;;;;;9.27;95.72;99276.25;5074484;28;45779;-61
2021/12/29 10:39:20;;;;;;;;;8.25;7.75;;;;;9.30;95.63;99263.00;5075248;28;45605;-62
2021/12/29 10:41:49;;;;;;;;;10.50;9.75;;;;;9.30;95.63;99263.84;5071927;28;45495;-63
2021/12/29 10:44:15;;;;;;;;;27.00;25.00;;;;;9.32;96.19;99269.06;5075198;28;45286;-62
2021/12/29 10:46:41;;;;;;;;;13.25;10.25;;;;;9.35;96.23;99276.88;5074843;27;45482;-62
2021/12/29 10:49:08;;;;;;;;;12.00;11.00;;;;;9.38;96.00;99272.34;5074469;28;46681;-62
2021/12/29 10:51:42;;;;;;;;;13.50;12.50;;;;;9.39;95.83;99271.44;5074836;28;45640;-62
2021/12/29 10:54:12;;;;;;;;;15.00;14.75;;;;;9.41;95.86;99261.72;5074712;28;45510;-70
2021/12/29 10:56:41;;;;;;;;;14.25;12.75;;;;;9.44;95.56;99264.25;5075240;28;45534;-70
2021/12/29 10:59:18;;;;;;;;;13.00;12.25;;;;;9.43;95.50;99277.47;5074475;28;46216;-70
2021/12/29 11:01:45;;;;;;;;;12.00;10.50;;;;;9.43;95.52;99275.69;5084384;27;45510;-70
2021/12/29 11:04:13;;;;;;;;;18.50;13.50;;;;;9.41;95.37;99266.97;5075267;28;45547;-70
2021/12/29 11:06:43;;;;;;;;;21.33;19.33;;;;;9.38;95.43;99289.94;5073064;28;45572;-70
2021/12/29 11:09:09;;;;;;;;;17.00;14.25;;;;;9.37;95.38;99298.72;5074816;28;46484;-71
2021/12/29 11:11:39;;;;;;;;;14.00;13.75;;;;;9.37;95.65;99280.31;5070886;28;45954;-70
2021/12/29 11:14:07;;;;;;;;;12.50;11.75;;;;;9.37;95.94;99285.56;5075586;28;45332;-71
2021/12/29 11:16:32;;;;;;;;;13.75;13.75;;;;;9.38;95.89;99280.22;5087402;27;45374;-70
2021/12/29 11:18:58;;;;;;;;;12.00;11.75;;;;;9.37;95.90;99278.53;5075012;28;45374;-69
2021/12/29 11:21:28;;;;;;;;;8.75;8.75;;;;;9.38;95.71;99253.09;5074622;28;45549;-70
2021/12/29 11:23:54;;;;;;;;;8.75;6.00;;;;;9.37;95.58;99232.94;5075019;28;45338;-70
2021/12/29 11:26:33;;;;;;;;;7.25;6.75;;;;;9.35;95.80;99256.69;5074533;28;45373;-71
2021/12/29 11:29:07;;;;;;;;;6.50;6.25;;;;;9.36;96.13;99278.59;5075031;27;45462;-70
2021/12/29 11:31:48;;;;;;;;;12.00;10.50;;;;;9.36;96.15;99211.03;5074634;28;45421;-70
2021/12/29 11:34:26;;;;;;;;;9.00;9.00;;;;;9.37;96.22;99209.28;5074417;27;45279;-70
2021/12/29 11:37:00;;;;;;;;;12.75;12.75;;;;;9.35;96.37;99267.22;5073261;28;45459;-70
2021/12/29 11:39:26;;;;;;;;;5.75;5.75;;;;;9.37;96.47;99273.28;5073871;28;45475;-70
2021/12/29 11:41:52;;;;;;;;;8.25;8.25;;;;;9.37;96.46;99254.00;5072896;28;45392;-70